createdAt,value
2022-12-23T00:01:27.417Z,11.10
2022-12-23T00:04:00.483Z,11.10
2022-12-23T00:06:28.479Z,11.10
2022-12-23T00:08:58.853Z,11.10
2022-12-23T00:11:29.369Z,11.10
2022-12-23T00:14:21.550Z,11.10
2022-12-23T00:16:51.244Z,11.00
2022-12-23T00:19:19.769Z,11.00
2022-12-23T00:21:48.607Z,11.00
2022-12-23T00:24:16.740Z,11.00
2022-12-23T00:26:45.017Z,11.00
2022-12-23T00:29:14.047Z,11.00
2022-12-23T00:31:41.868Z,10.90
2022-12-23T00:34:10.883Z,10.90
2022-12-23T00:36:38.793Z,10.90
2022-12-23T00:39:26.804Z,10.90
2022-12-23T00:42:12.841Z,10.90
2022-12-23T00:44:41.496Z,10.90
2022-12-23T00:47:29.181Z,10.90
2022-12-23T00:49:58.194Z,10.90
2022-12-23T00:52:27.177Z,10.80
2022-12-23T00:54:55.619Z,10.80
2022-12-23T00:57:23.456Z,10.80
2022-12-23T00:59:51.474Z,10.80
2022-12-23T01:02:38.026Z,10.80
2022-12-23T01:05:25.324Z,10.80
2022-12-23T01:07:53.568Z,10.80
2022-12-23T01:10:21.544Z,10.80
2022-12-23T01:12:49.265Z,10.70
2022-12-23T01:15:17.389Z,10.70
2022-12-23T01:17:45.153Z,10.70
2022-12-23T01:20:16.182Z,10.70
2022-12-23T01:22:44.515Z,10.60
2022-12-23T01:25:15.218Z,10.60
2022-12-23T01:27:45.217Z,10.60
2022-12-23T01:30:13.967Z,10.60
2022-12-23T01:32:42.106Z,10.50
2022-12-23T01:35:10.678Z,10.50
2022-12-23T01:37:38.469Z,10.50
2022-12-23T01:40:08.101Z,10.50
2022-12-23T01:42:45.308Z,10.50
2022-12-23T01:45:24.529Z,10.50
2022-12-23T01:48:18.031Z,10.50
2022-12-23T01:50:50.847Z,10.50
2022-12-23T01:53:28.326Z,10.50
2022-12-23T01:56:12.270Z,10.50
2022-12-23T01:58:48.044Z,10.50
2022-12-23T02:01:35.447Z,10.50
2022-12-23T02:04:09.607Z,10.50
2022-12-23T02:07:08.893Z,10.40
2022-12-23T02:09:39.321Z,10.40
2022-12-23T02:12:25.566Z,10.40
2022-12-23T02:15:41.070Z,10.40
2022-12-23T02:18:46.262Z,10.40
2022-12-23T02:21:19.747Z,10.40
2022-12-23T02:23:47.742Z,10.30
2022-12-23T02:26:52.946Z,10.30
2022-12-23T02:29:43.175Z,10.30
2022-12-23T02:32:23.947Z,10.30
2022-12-23T02:35:16.552Z,10.30
2022-12-23T02:37:50.407Z,10.30
2022-12-23T02:40:21.610Z,10.30
2022-12-23T02:43:08.485Z,10.30
2022-12-23T02:45:53.364Z,10.30
2022-12-23T02:48:48.606Z,10.30
2022-12-23T02:51:19.951Z,10.30
2022-12-23T02:53:57.996Z,10.20
2022-12-23T02:56:29.238Z,10.20
2022-12-23T02:59:05.023Z,10.20
2022-12-23T03:01:35.839Z,10.20
2022-12-23T03:04:06.558Z,10.20
2022-12-23T03:06:44.484Z,10.10
2022-12-23T03:09:24.775Z,10.10
2022-12-23T03:12:10.447Z,10.10
2022-12-23T03:14:44.845Z,10.10
2022-12-23T03:17:27.401Z,10.10
2022-12-23T03:20:01.865Z,10.10
2022-12-23T03:22:32.995Z,10.10
2022-12-23T03:25:00.653Z,10.10
2022-12-23T03:28:04.902Z,10.10
2022-12-23T03:30:34.057Z,10.00
2022-12-23T03:33:15.546Z,10.00
2022-12-23T03:35:51.599Z,10.00
2022-12-23T03:38:20.317Z,10.00
2022-12-23T03:40:53.972Z,10.00
2022-12-23T03:43:33.726Z,10.00
2022-12-23T03:46:06.864Z,10.00
2022-12-23T03:48:38.946Z,10.10
2022-12-23T03:51:14.969Z,10.10
2022-12-23T03:53:51.879Z,10.00
2022-12-23T03:56:24.955Z,10.10
2022-12-23T03:59:06.098Z,10.10
2022-12-23T04:01:49.035Z,10.00
2022-12-23T04:04:42.970Z,10.10
2022-12-23T04:07:17.410Z,10.10
2022-12-23T04:09:46.225Z,10.10
2022-12-23T04:12:15.704Z,10.10
2022-12-23T04:14:48.575Z,10.10
2022-12-23T04:17:17.895Z,10.00
2022-12-23T04:19:46.974Z,10.00
2022-12-23T04:22:15.841Z,10.00
2022-12-23T04:24:44.467Z,10.00
2022-12-23T04:27:15.594Z,10.00
2022-12-23T04:29:44.961Z,10.00
2022-12-23T04:32:13.233Z,10.00
2022-12-23T04:34:42.233Z,10.00
2022-12-23T04:37:10.808Z,10.00
2022-12-23T04:39:39.900Z,10.00
2022-12-23T04:42:08.170Z,10.00
2022-12-23T04:44:36.270Z,10.00
2022-12-23T04:47:04.626Z,10.00
2022-12-23T04:49:35.396Z,10.00
2022-12-23T04:52:03.239Z,10.00
2022-12-23T04:54:31.751Z,9.90
2022-12-23T04:56:59.965Z,10.00
2022-12-23T04:59:28.016Z,10.00
2022-12-23T05:01:56.373Z,10.00
2022-12-23T05:04:24.976Z,10.00
2022-12-23T05:06:52.820Z,10.00
2022-12-23T05:09:20.886Z,10.00
2022-12-23T05:11:48.567Z,9.90
2022-12-23T05:14:16.960Z,10.00
2022-12-23T05:16:45.057Z,10.00
2022-12-23T05:19:16.026Z,9.90
2022-12-23T05:21:43.887Z,9.90
2022-12-23T05:24:12.623Z,9.90
2022-12-23T05:26:40.886Z,10.00
2022-12-23T05:29:10.099Z,10.00
2022-12-23T05:31:37.794Z,10.00
2022-12-23T05:34:08.811Z,10.00
2022-12-23T05:36:36.643Z,10.00
2022-12-23T05:39:05.279Z,10.00
2022-12-23T05:41:32.991Z,10.00
2022-12-23T05:44:02.017Z,9.90
2022-12-23T05:46:30.145Z,9.90
2022-12-23T05:48:58.655Z,9.90
2022-12-23T05:51:26.515Z,9.90
2022-12-23T05:53:57.609Z,9.90
2022-12-23T05:56:26.365Z,9.90
2022-12-23T05:58:54.465Z,9.90
2022-12-23T06:01:22.152Z,9.90
2022-12-23T06:03:50.776Z,9.90
2022-12-23T06:06:19.051Z,9.90
2022-12-23T06:08:47.120Z,9.80
2022-12-23T06:11:14.895Z,9.80
2022-12-23T06:13:42.998Z,9.80
2022-12-23T06:16:10.917Z,9.80
2022-12-23T06:18:39.106Z,9.80
2022-12-23T06:21:07.408Z,9.90
2022-12-23T06:23:35.717Z,9.90
2022-12-23T06:26:03.755Z,9.80
2022-12-23T06:28:33.377Z,9.80
2022-12-23T06:31:01.692Z,9.80
2022-12-23T06:33:29.712Z,9.80
2022-12-23T06:35:57.491Z,9.80
2022-12-23T06:38:25.533Z,9.80
2022-12-23T06:40:53.311Z,9.70
2022-12-23T06:43:24.730Z,9.70
2022-12-23T06:45:52.609Z,9.70
2022-12-23T06:48:22.828Z,9.70
2022-12-23T06:50:50.633Z,9.70
2022-12-23T06:53:18.716Z,9.70
2022-12-23T06:55:46.960Z,9.60
2022-12-23T06:58:15.105Z,9.60
2022-12-23T07:00:42.801Z,9.60
2022-12-23T07:03:10.994Z,9.50
2022-12-23T07:05:38.837Z,9.50
2022-12-23T07:08:07.005Z,9.40
2022-12-23T07:10:35.291Z,9.30
2022-12-23T07:13:03.297Z,9.30
2022-12-23T07:15:31.683Z,9.20
2022-12-23T07:17:59.734Z,9.10
2022-12-23T07:20:28.077Z,9.10
2022-12-23T07:22:57.289Z,9.10
2022-12-23T07:25:25.866Z,9.00
2022-12-23T07:27:55.556Z,9.10
2022-12-23T07:30:24.560Z,9.00
2022-12-23T07:32:53.646Z,9.00
2022-12-23T07:35:21.893Z,9.00
2022-12-23T07:37:55.604Z,9.10
2022-12-23T07:40:24.004Z,9.00
2022-12-23T07:43:01.606Z,9.10
2022-12-23T07:45:30.267Z,9.00
2022-12-23T07:48:00.560Z,9.00
2022-12-23T07:50:30.959Z,9.00
2022-12-23T07:52:58.937Z,9.10
2022-12-23T07:55:26.798Z,9.10
2022-12-23T07:57:55.329Z,9.10
2022-12-23T08:00:23.123Z,9.10
2022-12-23T08:02:51.963Z,9.10
2022-12-23T08:05:21.056Z,9.00
2022-12-23T08:07:50.158Z,9.00
2022-12-23T08:10:17.978Z,9.00
2022-12-23T08:12:46.615Z,9.00
2022-12-23T08:15:17.086Z,9.00
2022-12-23T08:17:45.241Z,9.00
2022-12-23T08:20:13.216Z,9.00
2022-12-23T08:22:41.295Z,9.00
2022-12-23T08:25:09.533Z,8.90
2022-12-23T08:27:37.833Z,9.00
2022-12-23T08:30:06.837Z,8.90
2022-12-23T08:32:38.159Z,8.90
2022-12-23T08:35:06.577Z,8.90
2022-12-23T08:37:35.667Z,9.00
2022-12-23T08:40:04.713Z,8.90
2022-12-23T08:42:33.262Z,8.90
2022-12-23T08:45:01.625Z,8.90
2022-12-23T08:47:29.730Z,8.90
2022-12-23T08:49:59.691Z,8.90
2022-12-23T08:52:30.372Z,9.10
2022-12-23T08:54:58.659Z,9.00
2022-12-23T08:57:30.787Z,9.00
2022-12-23T08:59:59.148Z,9.00
2022-12-23T09:02:27.107Z,9.00
2022-12-23T09:04:55.094Z,8.90
2022-12-23T09:07:23.091Z,9.00
2022-12-23T09:09:50.928Z,9.00
2022-12-23T09:12:19.450Z,9.00
2022-12-23T09:14:47.918Z,9.10
2022-12-23T09:17:17.687Z,9.10
2022-12-23T09:19:52.243Z,9.20
2022-12-23T09:22:21.503Z,9.20
2022-12-23T09:24:50.212Z,9.30
2022-12-23T09:27:18.320Z,9.30
2022-12-23T09:29:46.078Z,9.40
2022-12-23T09:32:14.176Z,9.30
2022-12-23T09:34:41.931Z,9.30
2022-12-23T09:37:10.563Z,9.40
2022-12-23T09:39:38.472Z,9.40
2022-12-23T09:42:30.970Z,9.40
2022-12-23T09:45:40.121Z,9.40
2022-12-23T09:48:17.108Z,9.40
2022-12-23T09:50:46.684Z,9.40
2022-12-23T09:53:19.810Z,9.40
2022-12-23T09:56:08.877Z,9.40
2022-12-23T09:59:04.025Z,9.50
2022-12-23T10:01:42.964Z,9.50
2022-12-23T10:04:19.457Z,9.60
2022-12-23T10:06:59.321Z,9.60
2022-12-23T10:09:38.322Z,9.60
2022-12-23T10:12:37.406Z,9.60
2022-12-23T10:15:22.310Z,9.60
2022-12-23T10:17:55.462Z,9.70
2022-12-23T10:20:44.388Z,9.70
2022-12-23T10:23:42.682Z,9.70
2022-12-23T10:26:43.207Z,9.70
2022-12-23T10:29:20.537Z,9.80
2022-12-23T10:32:15.060Z,9.90
2022-12-23T10:35:23.006Z,9.90
2022-12-23T10:38:11.420Z,10.00
2022-12-23T10:40:50.080Z,10.00
2022-12-23T10:43:50.497Z,10.00
2022-12-23T10:46:48.762Z,10.10
2022-12-23T10:49:31.937Z,10.20
2022-12-23T10:52:08.950Z,10.20
2022-12-23T10:54:38.853Z,10.30
2022-12-23T10:57:08.481Z,10.30
2022-12-23T10:59:36.928Z,10.30
2022-12-23T11:02:13.955Z,10.30
2022-12-23T11:04:48.548Z,10.40
2022-12-23T11:10:26.213Z,10.50
2022-12-23T11:12:54.258Z,10.60
2022-12-23T11:15:29.935Z,10.60
2022-12-23T11:18:17.714Z,10.70
2022-12-23T11:21:03.034Z,10.80
2022-12-23T11:23:36.560Z,10.80
2022-12-23T11:26:09.427Z,10.80
2022-12-23T11:28:40.548Z,10.90
2022-12-23T11:31:14.662Z,10.90
2022-12-23T11:33:56.112Z,10.90
2022-12-23T11:36:27.782Z,11.00
2022-12-23T11:39:06.992Z,11.00
2022-12-23T11:41:48.953Z,11.00
2022-12-23T11:44:16.928Z,11.10
2022-12-23T11:46:45.114Z,11.20
2022-12-23T11:49:22.435Z,11.20
2022-12-23T11:52:05.845Z,11.20
2022-12-23T11:54:34.706Z,11.30
2022-12-23T11:57:07.127Z,11.30
2022-12-23T11:59:39.182Z,11.40
2022-12-23T12:02:22.110Z,11.40
2022-12-23T12:05:31.329Z,11.50
2022-12-23T12:08:22.135Z,11.60
2022-12-23T12:10:53.544Z,11.60
2022-12-23T12:13:40.147Z,11.70
2022-12-23T12:16:16.287Z,11.80
2022-12-23T12:18:52.068Z,11.80
2022-12-23T12:24:08.271Z,12.20
2022-12-23T12:26:43.787Z,12.30
2022-12-23T12:29:24.731Z,12.50
2022-12-23T12:31:58.638Z,12.60
2022-12-23T12:34:51.950Z,12.70
2022-12-23T12:37:44.989Z,12.70
2022-12-23T12:40:36.288Z,12.80
2022-12-23T12:43:23.646Z,12.90
2022-12-23T12:46:06.810Z,13.00
2022-12-23T12:48:48.949Z,13.10
2022-12-23T12:51:26.505Z,13.10
2022-12-23T12:54:02.745Z,13.20
2022-12-23T12:56:52.952Z,13.30
2022-12-23T12:59:38.048Z,13.30
2022-12-23T13:02:30.558Z,13.30
2022-12-23T13:05:11.291Z,13.40
2022-12-23T13:07:48.184Z,13.50
2022-12-23T13:10:38.207Z,13.60
2022-12-23T13:13:24.858Z,13.50
2022-12-23T13:16:20.656Z,13.50
2022-12-23T13:19:03.402Z,13.60
2022-12-23T13:21:48.566Z,13.60
2022-12-23T13:24:26.299Z,13.50
2022-12-23T13:27:10.992Z,13.60
2022-12-23T13:30:13.081Z,13.70
2022-12-23T13:33:00.899Z,13.60
2022-12-23T13:35:46.375Z,13.70
2022-12-23T13:38:45.391Z,13.60
2022-12-23T13:41:48.611Z,13.50
2022-12-23T13:44:18.847Z,13.50
2022-12-23T13:47:07.991Z,13.50
2022-12-23T13:49:42.527Z,13.40
2022-12-23T13:52:12.610Z,13.40
2022-12-23T13:54:53.494Z,13.30
2022-12-23T13:57:26.843Z,13.20
2022-12-23T14:00:18.657Z,13.20
2022-12-23T14:02:50.966Z,13.30
2022-12-23T14:05:39.007Z,13.30
2022-12-23T14:08:21.095Z,13.30
2022-12-23T14:11:11.185Z,13.30
2022-12-23T14:13:51.411Z,13.40
2022-12-23T14:16:46.729Z,13.40
2022-12-23T14:21:31.331Z,13.40
2022-12-23T14:24:15.365Z,13.40
2022-12-23T14:26:59.959Z,13.40
2022-12-23T14:29:51.959Z,13.40
2022-12-23T14:32:28.538Z,13.30
2022-12-23T14:35:23.786Z,13.30
2022-12-23T14:38:16.819Z,13.20
2022-12-23T14:41:09.378Z,13.10
2022-12-23T14:43:47.076Z,13.10
2022-12-23T14:46:35.186Z,13.00
2022-12-23T14:49:41.715Z,12.90
2022-12-23T14:52:39.200Z,12.90
2022-12-23T14:55:32.828Z,12.80
2022-12-23T14:58:37.283Z,12.70
2022-12-23T15:01:16.323Z,12.70
2022-12-23T15:03:54.566Z,12.70
2022-12-23T15:06:38.110Z,12.60
2022-12-23T15:09:16.458Z,12.60
2022-12-23T15:11:46.939Z,12.50
2022-12-23T15:14:29.503Z,12.50
2022-12-23T15:16:57.550Z,12.50
2022-12-23T15:19:27.799Z,12.40
2022-12-23T15:22:17.320Z,12.40
2022-12-23T15:24:51.086Z,12.40
2022-12-23T15:27:29.678Z,12.30
2022-12-23T15:29:58.756Z,12.20
2022-12-23T15:32:28.602Z,12.20
2022-12-23T15:35:04.108Z,12.10
2022-12-23T15:37:33.492Z,12.00
2022-12-23T15:40:09.911Z,12.00
2022-12-23T15:42:46.425Z,11.90
2022-12-23T15:45:23.797Z,11.90
2022-12-23T15:47:52.014Z,11.90
2022-12-23T15:50:20.806Z,11.80
2022-12-23T15:52:50.471Z,11.80
2022-12-23T15:55:27.904Z,11.70
2022-12-23T15:57:56.801Z,11.70
2022-12-23T16:00:42.447Z,11.70
2022-12-23T16:03:38.924Z,11.70
2022-12-23T16:06:11.509Z,11.60
2022-12-23T16:08:39.771Z,11.50
2022-12-23T16:11:23.194Z,11.50
2022-12-23T16:14:02.973Z,11.50
2022-12-23T16:16:38.639Z,11.40
2022-12-23T16:19:27.171Z,11.40
2022-12-23T16:21:56.187Z,11.40
2022-12-23T16:24:24.263Z,11.40
2022-12-23T16:26:54.424Z,11.30
2022-12-23T16:29:23.236Z,11.30
2022-12-23T16:31:59.212Z,11.20
2022-12-23T16:34:31.594Z,11.20
2022-12-23T16:37:00.133Z,11.20
2022-12-23T16:39:28.340Z,11.10
2022-12-23T16:41:56.581Z,11.10
2022-12-23T16:44:27.158Z,11.10
2022-12-23T16:47:08.572Z,11.10
2022-12-23T16:49:37.608Z,11.10
2022-12-23T16:52:07.957Z,11.20
2022-12-23T16:54:35.767Z,11.20
2022-12-23T16:57:03.927Z,11.20
2022-12-23T16:59:31.759Z,11.30
2022-12-23T17:02:03.737Z,11.30
2022-12-23T17:04:32.443Z,11.30
2022-12-23T17:07:00.922Z,11.30
2022-12-23T17:09:29.445Z,11.30
2022-12-23T17:11:58.047Z,11.30
2022-12-23T17:14:26.937Z,11.30
2022-12-23T17:16:55.356Z,11.30
2022-12-23T17:19:29.203Z,11.30
2022-12-23T17:22:02.234Z,11.30
2022-12-23T17:24:31.292Z,11.30
2022-12-23T17:27:01.971Z,11.30
2022-12-23T17:29:30.188Z,11.30
2022-12-23T17:31:58.471Z,11.30
2022-12-23T17:34:26.343Z,11.30
2022-12-23T17:36:54.486Z,11.30
2022-12-23T17:39:22.569Z,11.30
2022-12-23T17:41:51.002Z,11.30
2022-12-23T17:44:19.743Z,11.30
2022-12-23T17:46:48.938Z,11.30
2022-12-23T17:50:10.076Z,11.20
2022-12-23T17:52:39.222Z,11.20
2022-12-23T17:55:15.755Z,11.10
2022-12-23T17:57:44.841Z,11.10
2022-12-23T18:00:18.603Z,11.10
2022-12-23T18:02:53.091Z,11.00
2022-12-23T18:05:35.789Z,11.00
2022-12-23T18:08:04.532Z,10.90
2022-12-23T18:10:37.308Z,10.90
2022-12-23T18:13:09.835Z,10.90
2022-12-23T18:15:41.131Z,10.80
2022-12-23T18:18:30.182Z,10.80
2022-12-23T18:21:03.480Z,10.80
2022-12-23T18:23:33.207Z,10.90
2022-12-23T18:26:01.109Z,10.80
2022-12-23T18:28:29.883Z,10.90
2022-12-23T18:30:59.039Z,10.90
2022-12-23T18:33:29.449Z,10.80
2022-12-23T18:35:57.522Z,10.80
2022-12-23T18:38:25.758Z,10.80
2022-12-23T18:40:56.708Z,10.80
2022-12-23T18:43:28.463Z,10.80
2022-12-23T18:45:58.935Z,10.70
2022-12-23T18:48:28.225Z,10.70
2022-12-23T18:50:56.447Z,10.70
2022-12-23T18:53:25.919Z,10.70
2022-12-23T18:55:54.748Z,10.70
2022-12-23T18:58:23.647Z,10.70
2022-12-23T19:00:53.235Z,10.60
2022-12-23T19:03:27.215Z,10.60
2022-12-23T19:05:57.862Z,10.60
2022-12-23T19:08:28.008Z,10.50
2022-12-23T19:10:56.372Z,10.50
2022-12-23T19:13:24.999Z,10.50
2022-12-23T19:15:53.589Z,10.50
2022-12-23T19:18:22.216Z,10.50
2022-12-23T19:20:50.089Z,10.50
2022-12-23T19:23:20.433Z,10.50
2022-12-23T19:25:54.876Z,10.40
2022-12-23T19:28:24.652Z,10.40
2022-12-23T19:30:52.977Z,10.40
2022-12-23T19:33:21.094Z,10.40
2022-12-23T19:35:49.619Z,10.30
2022-12-23T19:38:18.644Z,10.30
2022-12-23T19:40:55.577Z,10.30
2022-12-23T19:43:26.765Z,10.30
2022-12-23T19:46:02.673Z,10.30
2022-12-23T19:48:31.154Z,10.20
2022-12-23T19:51:01.646Z,10.20
2022-12-23T19:53:30.458Z,10.20
2022-12-23T19:56:04.714Z,10.20
2022-12-23T19:58:38.711Z,10.20
2022-12-23T20:01:22.670Z,10.20
2022-12-23T20:03:52.135Z,10.20
2022-12-23T20:06:28.796Z,10.20
2022-12-23T20:09:00.975Z,10.20
2022-12-23T20:11:32.657Z,10.20
2022-12-23T20:14:01.667Z,10.20
2022-12-23T20:16:30.162Z,10.10
2022-12-23T20:18:58.774Z,10.10
2022-12-23T20:21:26.978Z,10.10
2022-12-23T20:23:55.710Z,10.10
2022-12-23T20:26:24.160Z,10.10
2022-12-23T20:28:52.225Z,10.10
2022-12-23T20:31:25.322Z,10.10
2022-12-23T20:33:55.126Z,10.10
2022-12-23T20:36:29.618Z,10.10
2022-12-23T20:38:58.176Z,10.10
2022-12-23T20:41:29.365Z,10.00
2022-12-23T20:46:47.349Z,10.00
2022-12-23T20:49:15.437Z,10.00
2022-12-23T20:51:43.163Z,10.00
2022-12-23T20:54:11.346Z,10.00
2022-12-23T20:56:39.647Z,10.00
2022-12-23T20:59:08.188Z,10.00
2022-12-23T21:01:38.760Z,9.90
2022-12-23T21:04:12.925Z,9.90
2022-12-23T21:06:43.810Z,9.90
2022-12-23T21:11:36.331Z,9.80
2022-12-23T21:14:07.079Z,9.80
2022-12-23T21:16:38.477Z,9.70
2022-12-23T21:19:07.410Z,9.70
2022-12-23T21:21:35.951Z,9.70
2022-12-23T21:24:05.059Z,9.70
2022-12-23T21:26:35.423Z,9.70
2022-12-23T21:29:05.610Z,9.60
2022-12-23T21:31:36.763Z,9.60
2022-12-23T21:34:06.273Z,9.60
2022-12-23T21:36:36.834Z,9.60
2022-12-23T21:39:06.676Z,9.50
2022-12-23T21:41:37.513Z,9.50
2022-12-23T21:44:05.923Z,9.50
2022-12-23T21:46:34.196Z,9.50
2022-12-23T21:49:02.856Z,9.50
2022-12-23T21:51:40.153Z,9.50
2022-12-23T21:54:11.289Z,9.50
2022-12-23T21:56:40.616Z,9.50
2022-12-23T21:59:12.317Z,9.40
2022-12-23T22:01:40.924Z,9.40
2022-12-23T22:04:09.614Z,9.40
2022-12-23T22:06:40.551Z,9.40
2022-12-23T22:09:10.462Z,9.40
2022-12-23T22:11:39.029Z,9.40
2022-12-23T22:14:11.011Z,9.40
2022-12-23T22:16:39.021Z,9.40
2022-12-23T22:19:09.274Z,9.40
2022-12-23T22:21:39.711Z,9.40
2022-12-23T22:24:08.474Z,9.40
2022-12-23T22:26:40.230Z,9.40
2022-12-23T22:29:11.356Z,9.40
2022-12-23T22:31:46.877Z,9.40
2022-12-23T22:34:19.884Z,9.50
2022-12-23T22:38:04.063Z,9.50
2022-12-23T22:40:32.215Z,9.50
2022-12-23T22:43:00.201Z,9.60
2022-12-23T22:45:31.163Z,9.60
2022-12-23T22:47:59.954Z,9.60
2022-12-23T22:50:28.446Z,9.60
2022-12-23T22:52:56.235Z,9.60
2022-12-23T22:55:24.309Z,9.60
2022-12-23T22:57:52.548Z,9.60
2022-12-23T23:00:23.221Z,9.60
2022-12-23T23:02:51.942Z,9.60
2022-12-23T23:05:21.073Z,9.60
2022-12-23T23:07:48.960Z,9.60
2022-12-23T23:10:17.161Z,9.70
2022-12-23T23:12:45.005Z,9.60
2022-12-23T23:15:13.518Z,9.60
2022-12-23T23:17:41.636Z,9.60
2022-12-23T23:20:10.077Z,9.60
2022-12-23T23:22:37.991Z,9.60
2022-12-23T23:25:06.717Z,9.60
2022-12-23T23:27:35.258Z,9.60
2022-12-23T23:30:04.865Z,9.70
2022-12-23T23:32:33.120Z,9.70
2022-12-23T23:35:05.533Z,9.70
2022-12-23T23:37:38.377Z,9.70
2022-12-23T23:40:07.938Z,9.70
2022-12-23T23:42:35.831Z,9.70
2022-12-23T23:45:04.747Z,9.70
2022-12-23T23:47:34.760Z,9.70
2022-12-23T23:50:04.807Z,9.60
2022-12-23T23:52:34.716Z,9.70
2022-12-23T23:55:03.475Z,9.70
2022-12-23T23:57:32.727Z,9.70
